sensor_id;sensor_type;location;lat;lon;timestamp;temperature;humidity
16243;DHT22;11719;51.052;6.982;2022-09-09T00:04:15;22.80;99.90
16243;DHT22;11719;51.052;6.982;2022-09-09T00:13:32;22.70;99.90
16243;DHT22;11719;51.052;6.982;2022-09-09T00:16:27;22.80;99.90
16243;DHT22;11719;51.052;6.982;2022-09-09T00:18:57;22.90;99.90
16243;DHT22;11719;51.052;6.982;2022-09-09T00:21:35;23.00;99.90
16243;DHT22;11719;51.052;6.982;2022-09-09T00:24:31;23.00;99.90
16243;DHT22;11719;51.052;6.982;2022-09-09T00:27:11;23.00;99.90
16243;DHT22;11719;51.052;6.982;2022-09-09T00:30:19;23.00;99.90
16243;DHT22;11719;51.052;6.982;2022-09-09T00:33:01;22.90;99.90
16243;DHT22;11719;51.052;6.982;2022-09-09T00:35:32;22.90;99.90
16243;DHT22;11719;51.052;6.982;2022-09-09T00:38:08;22.90;99.90
16243;DHT22;11719;51.052;6.982;2022-09-09T00:43:32;22.90;99.90
16243;DHT22;11719;51.052;6.982;2022-09-09T00:58:01;22.80;99.90
16243;DHT22;11719;51.052;6.982;2022-09-09T01:00:30;22.70;99.90
16243;DHT22;11719;51.052;6.982;2022-09-09T01:03:22;22.70;99.90
16243;DHT22;11719;51.052;6.982;2022-09-09T01:06:33;22.80;99.90
16243;DHT22;11719;51.052;6.982;2022-09-09T01:11:51;22.90;99.90
16243;DHT22;11719;51.052;6.982;2022-09-09T01:28:14;23.30;99.90
16243;DHT22;11719;51.052;6.982;2022-09-09T01:30:42;23.30;99.90
16243;DHT22;11719;51.052;6.982;2022-09-09T01:33:14;23.40;99.90
16243;DHT22;11719;51.052;6.982;2022-09-09T01:35:48;23.40;99.90
16243;DHT22;11719;51.052;6.982;2022-09-09T01:38:20;23.40;99.90
16243;DHT22;11719;51.052;6.982;2022-09-09T01:40:47;23.40;99.90
16243;DHT22;11719;51.052;6.982;2022-09-09T01:43:13;23.40;99.90
16243;DHT22;11719;51.052;6.982;2022-09-09T01:45:41;23.10;99.90
16243;DHT22;11719;51.052;6.982;2022-09-09T01:48:08;23.00;99.90
16243;DHT22;11719;51.052;6.982;2022-09-09T01:50:34;22.90;99.90
16243;DHT22;11719;51.052;6.982;2022-09-09T01:53:01;22.80;99.90
16243;DHT22;11719;51.052;6.982;2022-09-09T01:55:40;22.70;99.90
16243;DHT22;11719;51.052;6.982;2022-09-09T02:04:42;22.50;99.90
16243;DHT22;11719;51.052;6.982;2022-09-09T02:07:31;22.60;99.90
16243;DHT22;11719;51.052;6.982;2022-09-09T02:10:20;22.70;99.90
16243;DHT22;11719;51.052;6.982;2022-09-09T02:12:55;22.70;99.90
16243;DHT22;11719;51.052;6.982;2022-09-09T02:18:24;22.60;99.90
16243;DHT22;11719;51.052;6.982;2022-09-09T02:20:56;22.60;99.90
16243;DHT22;11719;51.052;6.982;2022-09-09T02:23:23;22.50;99.90
16243;DHT22;11719;51.052;6.982;2022-09-09T02:25:51;22.60;99.90
16243;DHT22;11719;51.052;6.982;2022-09-09T02:28:20;22.70;99.90
16243;DHT22;11719;51.052;6.982;2022-09-09T02:30:49;22.90;99.90
16243;DHT22;11719;51.052;6.982;2022-09-09T02:33:27;23.00;99.90
16243;DHT22;11719;51.052;6.982;2022-09-09T02:35:56;23.00;99.90
16243;DHT22;11719;51.052;6.982;2022-09-09T02:38:31;22.90;99.90
16243;DHT22;11719;51.052;6.982;2022-09-09T02:41:00;22.90;99.90
16243;DHT22;11719;51.052;6.982;2022-09-09T02:43:32;22.90;99.90
16243;DHT22;11719;51.052;6.982;2022-09-09T02:46:08;22.90;99.90
16243;DHT22;11719;51.052;6.982;2022-09-09T02:49:06;23.00;99.90
16243;DHT22;11719;51.052;6.982;2022-09-09T02:52:07;23.00;99.90
16243;DHT22;11719;51.052;6.982;2022-09-09T02:54:36;22.90;99.90
16243;DHT22;11719;51.052;6.982;2022-09-09T02:59:39;22.90;99.90
16243;DHT22;11719;51.052;6.982;2022-09-09T03:02:06;22.90;99.90
16243;DHT22;11719;51.052;6.982;2022-09-09T03:04:32;23.00;99.90
16243;DHT22;11719;51.052;6.982;2022-09-09T03:06:58;23.00;99.90
16243;DHT22;11719;51.052;6.982;2022-09-09T03:09:24;23.10;99.90
16243;DHT22;11719;51.052;6.982;2022-09-09T03:11:51;23.10;99.90
16243;DHT22;11719;51.052;6.982;2022-09-09T03:14:17;23.10;99.90
16243;DHT22;11719;51.052;6.982;2022-09-09T03:16:47;23.10;99.90
16243;DHT22;11719;51.052;6.982;2022-09-09T03:19:13;23.20;99.90
16243;DHT22;11719;51.052;6.982;2022-09-09T03:21:39;23.20;99.90
16243;DHT22;11719;51.052;6.982;2022-09-09T03:24:05;23.20;99.90
16243;DHT22;11719;51.052;6.982;2022-09-09T03:26:32;23.30;99.90
16243;DHT22;11719;51.052;6.982;2022-09-09T03:28:58;23.20;99.90
16243;DHT22;11719;51.052;6.982;2022-09-09T03:31:26;23.30;99.90
16243;DHT22;11719;51.052;6.982;2022-09-09T03:33:56;23.30;99.90
16243;DHT22;11719;51.052;6.982;2022-09-09T03:36:24;23.20;99.90
16243;DHT22;11719;51.052;6.982;2022-09-09T03:38:51;23.10;99.90
16243;DHT22;11719;51.052;6.982;2022-09-09T03:41:18;23.10;99.90
16243;DHT22;11719;51.052;6.982;2022-09-09T03:43:43;23.20;99.90
16243;DHT22;11719;51.052;6.982;2022-09-09T03:46:10;23.10;99.90
16243;DHT22;11719;51.052;6.982;2022-09-09T03:48:36;23.20;99.90
16243;DHT22;11719;51.052;6.982;2022-09-09T03:51:02;23.10;99.90
16243;DHT22;11719;51.052;6.982;2022-09-09T03:53:28;23.20;99.90
16243;DHT22;11719;51.052;6.982;2022-09-09T03:55:56;23.30;99.90
16243;DHT22;11719;51.052;6.982;2022-09-09T03:58:25;23.40;99.90
16243;DHT22;11719;51.052;6.982;2022-09-09T04:01:00;23.40;99.90
16243;DHT22;11719;51.052;6.982;2022-09-09T04:03:39;23.40;99.90
16243;DHT22;11719;51.052;6.982;2022-09-09T04:06:07;23.50;99.90
16243;DHT22;11719;51.052;6.982;2022-09-09T04:08:34;23.50;99.90
16243;DHT22;11719;51.052;6.982;2022-09-09T04:11:02;23.50;99.90
16243;DHT22;11719;51.052;6.982;2022-09-09T04:13:32;23.50;99.90
16243;DHT22;11719;51.052;6.982;2022-09-09T04:16:00;23.50;99.90
16243;DHT22;11719;51.052;6.982;2022-09-09T04:18:27;23.50;99.90
16243;DHT22;11719;51.052;6.982;2022-09-09T04:20:56;23.50;99.90
16243;DHT22;11719;51.052;6.982;2022-09-09T04:23:23;23.50;99.90
16243;DHT22;11719;51.052;6.982;2022-09-09T04:25:52;23.50;99.90
16243;DHT22;11719;51.052;6.982;2022-09-09T04:28:21;23.60;99.90
16243;DHT22;11719;51.052;6.982;2022-09-09T04:30:48;23.60;99.90
16243;DHT22;11719;51.052;6.982;2022-09-09T04:33:14;23.60;99.90
16243;DHT22;11719;51.052;6.982;2022-09-09T04:35:48;23.60;99.90
16243;DHT22;11719;51.052;6.982;2022-09-09T04:38:15;23.60;99.90
16243;DHT22;11719;51.052;6.982;2022-09-09T04:40:43;23.60;99.90
16243;DHT22;11719;51.052;6.982;2022-09-09T04:43:11;23.60;99.90
16243;DHT22;11719;51.052;6.982;2022-09-09T04:45:37;23.50;99.90
16243;DHT22;11719;51.052;6.982;2022-09-09T04:48:06;23.50;99.90
16243;DHT22;11719;51.052;6.982;2022-09-09T04:50:32;23.50;99.90
16243;DHT22;11719;51.052;6.982;2022-09-09T04:53:04;23.50;99.90
16243;DHT22;11719;51.052;6.982;2022-09-09T04:55:31;23.50;99.90
16243;DHT22;11719;51.052;6.982;2022-09-09T04:57:57;23.50;99.90
16243;DHT22;11719;51.052;6.982;2022-09-09T05:00:24;23.50;99.90
16243;DHT22;11719;51.052;6.982;2022-09-09T05:02:50;23.60;99.90
16243;DHT22;11719;51.052;6.982;2022-09-09T05:05:16;23.60;99.90
16243;DHT22;11719;51.052;6.982;2022-09-09T05:07:42;23.60;99.90
16243;DHT22;11719;51.052;6.982;2022-09-09T05:10:09;23.60;99.90
16243;DHT22;11719;51.052;6.982;2022-09-09T05:12:35;23.60;99.90
16243;DHT22;11719;51.052;6.982;2022-09-09T05:15:01;23.60;99.90
16243;DHT22;11719;51.052;6.982;2022-09-09T05:17:27;23.60;99.90
16243;DHT22;11719;51.052;6.982;2022-09-09T05:19:53;23.60;99.90
16243;DHT22;11719;51.052;6.982;2022-09-09T05:22:22;23.60;99.90
16243;DHT22;11719;51.052;6.982;2022-09-09T05:24:49;23.60;99.90
16243;DHT22;11719;51.052;6.982;2022-09-09T05:27:18;23.60;99.90
16243;DHT22;11719;51.052;6.982;2022-09-09T05:29:47;23.60;99.90
16243;DHT22;11719;51.052;6.982;2022-09-09T05:32:13;23.60;99.90
16243;DHT22;11719;51.052;6.982;2022-09-09T05:34:40;23.60;99.90
16243;DHT22;11719;51.052;6.982;2022-09-09T05:37:06;23.60;99.90
16243;DHT22;11719;51.052;6.982;2022-09-09T05:39:33;23.60;99.90
16243;DHT22;11719;51.052;6.982;2022-09-09T05:42:01;23.60;99.90
16243;DHT22;11719;51.052;6.982;2022-09-09T05:44:28;23.60;99.90
16243;DHT22;11719;51.052;6.982;2022-09-09T05:46:54;23.60;99.90
16243;DHT22;11719;51.052;6.982;2022-09-09T05:49:20;23.50;99.90
16243;DHT22;11719;51.052;6.982;2022-09-09T05:51:46;23.60;99.90
16243;DHT22;11719;51.052;6.982;2022-09-09T05:54:13;23.60;99.90
16243;DHT22;11719;51.052;6.982;2022-09-09T05:56:41;23.50;99.90
16243;DHT22;11719;51.052;6.982;2022-09-09T05:59:07;23.50;99.90
16243;DHT22;11719;51.052;6.982;2022-09-09T06:01:34;23.50;99.90
16243;DHT22;11719;51.052;6.982;2022-09-09T06:04:02;23.50;99.90
16243;DHT22;11719;51.052;6.982;2022-09-09T06:06:34;23.50;99.90
16243;DHT22;11719;51.052;6.982;2022-09-09T06:09:03;23.50;99.90
16243;DHT22;11719;51.052;6.982;2022-09-09T06:11:32;23.50;99.90
16243;DHT22;11719;51.052;6.982;2022-09-09T06:13:59;23.50;99.90
16243;DHT22;11719;51.052;6.982;2022-09-09T06:16:27;23.50;99.90
16243;DHT22;11719;51.052;6.982;2022-09-09T06:18:55;23.50;99.90
16243;DHT22;11719;51.052;6.982;2022-09-09T06:21:27;23.50;99.90
16243;DHT22;11719;51.052;6.982;2022-09-09T06:23:58;23.50;99.90
16243;DHT22;11719;51.052;6.982;2022-09-09T06:28:58;23.40;99.90
16243;DHT22;11719;51.052;6.982;2022-09-09T06:31:26;23.40;99.90
16243;DHT22;11719;51.052;6.982;2022-09-09T06:33:56;23.30;99.90
16243;DHT22;11719;51.052;6.982;2022-09-09T06:36:24;23.30;99.90
16243;DHT22;11719;51.052;6.982;2022-09-09T06:38:51;23.40;99.90
16243;DHT22;11719;51.052;6.982;2022-09-09T06:41:20;23.40;99.90
16243;DHT22;11719;51.052;6.982;2022-09-09T06:43:47;23.40;99.90
16243;DHT22;11719;51.052;6.982;2022-09-09T06:46:23;23.40;99.90
16243;DHT22;11719;51.052;6.982;2022-09-09T06:48:53;23.30;99.90
16243;DHT22;11719;51.052;6.982;2022-09-09T06:51:29;23.30;99.90
16243;DHT22;11719;51.052;6.982;2022-09-09T06:53:58;23.30;99.90
16243;DHT22;11719;51.052;6.982;2022-09-09T06:56:30;23.20;99.90
16243;DHT22;11719;51.052;6.982;2022-09-09T06:59:01;23.20;99.90
16243;DHT22;11719;51.052;6.982;2022-09-09T07:01:32;23.20;99.90
16243;DHT22;11719;51.052;6.982;2022-09-09T07:04:00;23.20;99.90
16243;DHT22;11719;51.052;6.982;2022-09-09T07:06:28;23.20;99.90
16243;DHT22;11719;51.052;6.982;2022-09-09T07:08:58;23.20;99.90
16243;DHT22;11719;51.052;6.982;2022-09-09T07:11:28;23.20;99.90
16243;DHT22;11719;51.052;6.982;2022-09-09T07:13:57;23.20;99.90
16243;DHT22;11719;51.052;6.982;2022-09-09T07:16:24;23.30;99.90
16243;DHT22;11719;51.052;6.982;2022-09-09T07:18:52;23.10;99.90
16243;DHT22;11719;51.052;6.982;2022-09-09T07:21:18;23.00;99.90
16243;DHT22;11719;51.052;6.982;2022-09-09T07:23:46;22.90;99.90
16243;DHT22;11719;51.052;6.982;2022-09-09T07:26:16;22.70;99.90
16243;DHT22;11719;51.052;6.982;2022-09-09T07:28:45;22.60;99.90
16243;DHT22;11719;51.052;6.982;2022-09-09T07:31:26;22.60;99.90
16243;DHT22;11719;51.052;6.982;2022-09-09T07:33:53;22.60;99.90
16243;DHT22;11719;51.052;6.982;2022-09-09T07:36:27;22.70;99.90
16243;DHT22;11719;51.052;6.982;2022-09-09T07:38:59;22.70;99.90
16243;DHT22;11719;51.052;6.982;2022-09-09T07:41:30;22.60;99.90
16243;DHT22;11719;51.052;6.982;2022-09-09T07:43:59;22.50;99.90
16243;DHT22;11719;51.052;6.982;2022-09-09T07:46:30;22.50;99.90
16243;DHT22;11719;51.052;6.982;2022-09-09T07:48:56;22.50;99.90
16243;DHT22;11719;51.052;6.982;2022-09-09T07:51:28;22.40;99.90
16243;DHT22;11719;51.052;6.982;2022-09-09T07:53:58;22.40;99.90
16243;DHT22;11719;51.052;6.982;2022-09-09T07:56:26;22.50;99.90
16243;DHT22;11719;51.052;6.982;2022-09-09T07:58:53;22.40;99.90
16243;DHT22;11719;51.052;6.982;2022-09-09T08:01:26;22.40;99.90
16243;DHT22;11719;51.052;6.982;2022-09-09T08:04:01;22.40;99.90
16243;DHT22;11719;51.052;6.982;2022-09-09T08:06:35;22.50;99.90
16243;DHT22;11719;51.052;6.982;2022-09-09T08:09:03;22.60;99.90
16243;DHT22;11719;51.052;6.982;2022-09-09T08:11:30;22.60;99.90
16243;DHT22;11719;51.052;6.982;2022-09-09T08:13:57;22.50;99.90
16243;DHT22;11719;51.052;6.982;2022-09-09T08:16:34;22.40;99.90
16243;DHT22;11719;51.052;6.982;2022-09-09T08:19:02;22.40;99.90
16243;DHT22;11719;51.052;6.982;2022-09-09T08:21:30;22.30;99.90
16243;DHT22;11719;51.052;6.982;2022-09-09T08:23:58;22.40;99.90
16243;DHT22;11719;51.052;6.982;2022-09-09T08:26:28;22.40;99.90
16243;DHT22;11719;51.052;6.982;2022-09-09T08:28:59;22.40;99.90
16243;DHT22;11719;51.052;6.982;2022-09-09T08:31:29;22.40;99.90
16243;DHT22;11719;51.052;6.982;2022-09-09T08:34:01;22.30;99.40
16243;DHT22;11719;51.052;6.982;2022-09-09T08:36:32;22.40;99.90
16243;DHT22;11719;51.052;6.982;2022-09-09T08:39:00;22.40;99.90
16243;DHT22;11719;51.052;6.982;2022-09-09T08:41:30;22.50;99.90
16243;DHT22;11719;51.052;6.982;2022-09-09T08:44:45;22.40;99.90
16243;DHT22;11719;51.052;6.982;2022-09-09T08:50:29;22.50;99.90
16243;DHT22;11719;51.052;6.982;2022-09-09T08:53:02;22.60;99.90
16243;DHT22;11719;51.052;6.982;2022-09-09T08:55:37;22.60;99.90
16243;DHT22;11719;51.052;6.982;2022-09-09T08:58:18;22.60;99.90
16243;DHT22;11719;51.052;6.982;2022-09-09T09:04:22;22.40;98.30
16243;DHT22;11719;51.052;6.982;2022-09-09T09:10:21;22.30;97.90
16243;DHT22;11719;51.052;6.982;2022-09-09T09:13:01;22.10;99.90
16243;DHT22;11719;51.052;6.982;2022-09-09T09:15:36;22.20;97.60
16243;DHT22;11719;51.052;6.982;2022-09-09T09:18:04;22.20;99.20
16243;DHT22;11719;51.052;6.982;2022-09-09T09:20:47;22.30;99.20
16243;DHT22;11719;51.052;6.982;2022-09-09T09:23:25;22.30;98.50
16243;DHT22;11719;51.052;6.982;2022-09-09T09:25:58;22.30;97.50
16243;DHT22;11719;51.052;6.982;2022-09-09T09:28:29;22.40;99.00
16243;DHT22;11719;51.052;6.982;2022-09-09T09:31:03;22.40;99.20
16243;DHT22;11719;51.052;6.982;2022-09-09T09:33:48;22.40;99.90
16243;DHT22;11719;51.052;6.982;2022-09-09T09:36:16;22.50;99.90
16243;DHT22;11719;51.052;6.982;2022-09-09T09:38:59;22.50;97.50
16243;DHT22;11719;51.052;6.982;2022-09-09T09:41:43;22.50;99.90
16243;DHT22;11719;51.052;6.982;2022-09-09T09:47:04;22.60;99.70
16243;DHT22;11719;51.052;6.982;2022-09-09T09:49:32;22.50;97.50
16243;DHT22;11719;51.052;6.982;2022-09-09T09:52:02;22.60;99.90
16243;DHT22;11719;51.052;6.982;2022-09-09T09:54:32;22.70;99.90
16243;DHT22;11719;51.052;6.982;2022-09-09T09:57:11;22.70;99.90
16243;DHT22;11719;51.052;6.982;2022-09-09T09:59:39;22.70;99.00
16243;DHT22;11719;51.052;6.982;2022-09-09T10:04:46;22.70;98.10
16243;DHT22;11719;51.052;6.982;2022-09-09T10:07:21;22.70;99.30
16243;DHT22;11719;51.052;6.982;2022-09-09T10:09:55;22.70;99.90
16243;DHT22;11719;51.052;6.982;2022-09-09T10:15:33;22.80;99.10
16243;DHT22;11719;51.052;6.982;2022-09-09T10:24:48;22.90;99.00
16243;DHT22;11719;51.052;6.982;2022-09-09T10:32:46;23.10;99.10
16243;DHT22;11719;51.052;6.982;2022-09-09T10:35:35;23.10;99.90
16243;DHT22;11719;51.052;6.982;2022-09-09T10:52:01;23.10;98.70
16243;DHT22;11719;51.052;6.982;2022-09-09T10:54:53;23.10;97.70
16243;DHT22;11719;51.052;6.982;2022-09-09T11:03:00;23.10;99.90
16243;DHT22;11719;51.052;6.982;2022-09-09T11:05:41;23.10;97.20
16243;DHT22;11719;51.052;6.982;2022-09-09T11:15:13;23.00;99.10
16243;DHT22;11719;51.052;6.982;2022-09-09T11:17:11;23.10;99.90
16243;DHT22;11719;51.052;6.982;2022-09-09T11:19:41;23.20;98.40
16243;DHT22;11719;51.052;6.982;2022-09-09T11:22:32;23.10;97.40
16243;DHT22;11719;51.052;6.982;2022-09-09T11:34:17;23.10;98.40
16243;DHT22;11719;51.052;6.982;2022-09-09T11:44:41;23.10;99.90
16243;DHT22;11719;51.052;6.982;2022-09-09T11:47:26;23.10;98.10
16243;DHT22;11719;51.052;6.982;2022-09-09T11:50:11;23.10;98.50
16243;DHT22;11719;51.052;6.982;2022-09-09T11:53:20;23.10;98.10
16243;DHT22;11719;51.052;6.982;2022-09-09T11:55:59;23.00;98.10
16243;DHT22;11719;51.052;6.982;2022-09-09T11:58:28;23.00;97.50
16243;DHT22;11719;51.052;6.982;2022-09-09T12:00:59;23.00;99.00
16243;DHT22;11719;51.052;6.982;2022-09-09T12:06:28;23.10;99.90
16243;DHT22;11719;51.052;6.982;2022-09-09T12:09:08;23.10;97.30
16243;DHT22;11719;51.052;6.982;2022-09-09T12:11:45;23.20;97.90
16243;DHT22;11719;51.052;6.982;2022-09-09T12:17:22;23.10;98.60
16243;DHT22;11719;51.052;6.982;2022-09-09T12:29:02;23.10;96.40
16243;DHT22;11719;51.052;6.982;2022-09-09T12:37:42;23.00;96.20
16243;DHT22;11719;51.052;6.982;2022-09-09T12:40:41;23.10;97.80
16243;DHT22;11719;51.052;6.982;2022-09-09T12:43:19;23.10;96.40
16243;DHT22;11719;51.052;6.982;2022-09-09T12:45:47;23.10;99.60
16243;DHT22;11719;51.052;6.982;2022-09-09T12:48:17;23.10;96.60
16243;DHT22;11719;51.052;6.982;2022-09-09T12:50:53;23.00;96.10
16243;DHT22;11719;51.052;6.982;2022-09-09T12:53:33;23.00;96.80
16243;DHT22;11719;51.052;6.982;2022-09-09T12:56:05;23.00;98.80
16243;DHT22;11719;51.052;6.982;2022-09-09T12:58:36;23.00;96.70
16243;DHT22;11719;51.052;6.982;2022-09-09T13:01:04;23.00;99.60
16243;DHT22;11719;51.052;6.982;2022-09-09T13:03:32;22.90;99.90
16243;DHT22;11719;51.052;6.982;2022-09-09T13:06:11;22.70;99.90
16243;DHT22;11719;51.052;6.982;2022-09-09T13:08:39;22.90;99.90
16243;DHT22;11719;51.052;6.982;2022-09-09T13:11:14;22.90;99.90
16243;DHT22;11719;51.052;6.982;2022-09-09T13:13:43;22.90;99.90
16243;DHT22;11719;51.052;6.982;2022-09-09T13:16:22;23.00;99.90
16243;DHT22;11719;51.052;6.982;2022-09-09T13:18:50;23.00;99.90
16243;DHT22;11719;51.052;6.982;2022-09-09T13:21:17;23.00;99.90
16243;DHT22;11719;51.052;6.982;2022-09-09T13:23:49;23.00;99.90
16243;DHT22;11719;51.052;6.982;2022-09-09T13:26:20;23.00;99.90
16243;DHT22;11719;51.052;6.982;2022-09-09T13:28:48;23.00;99.90
16243;DHT22;11719;51.052;6.982;2022-09-09T13:31:24;22.90;99.90
16243;DHT22;11719;51.052;6.982;2022-09-09T13:33:53;23.00;99.90
16243;DHT22;11719;51.052;6.982;2022-09-09T13:36:31;23.00;99.90
16243;DHT22;11719;51.052;6.982;2022-09-09T13:39:02;23.10;99.90
16243;DHT22;11719;51.052;6.982;2022-09-09T13:41:36;23.10;
16243;DHT22;11719;51.052;6.982;2022-09-09T13:44:39;23.10;99.90
16243;DHT22;11719;51.052;6.982;2022-09-09T13:47:36;23.00;99.90
16243;DHT22;11719;51.052;6.982;2022-09-09T13:52:55;22.90;99.90
16243;DHT22;11719;51.052;6.982;2022-09-09T13:55:25;22.80;99.90
16243;DHT22;11719;51.052;6.982;2022-09-09T13:58:03;22.60;99.90
16243;DHT22;11719;51.052;6.982;2022-09-09T14:00:33;22.50;99.90
16243;DHT22;11719;51.052;6.982;2022-09-09T14:02:59;22.50;99.90
16243;DHT22;11719;51.052;6.982;2022-09-09T14:05:27;22.40;99.90
16243;DHT22;11719;51.052;6.982;2022-09-09T14:07:54;22.40;99.90
16243;DHT22;11719;51.052;6.982;2022-09-09T14:10:20;22.40;99.90
16243;DHT22;11719;51.052;6.982;2022-09-09T14:12:47;22.40;99.90
16243;DHT22;11719;51.052;6.982;2022-09-09T14:15:13;22.40;99.90
16243;DHT22;11719;51.052;6.982;2022-09-09T14:17:40;22.40;99.90
16243;DHT22;11719;51.052;6.982;2022-09-09T14:20:07;22.50;99.90
16243;DHT22;11719;51.052;6.982;2022-09-09T14:22:34;22.60;99.90
16243;DHT22;11719;51.052;6.982;2022-09-09T14:25:01;22.70;99.90
16243;DHT22;11719;51.052;6.982;2022-09-09T14:27:27;22.80;99.90
16243;DHT22;11719;51.052;6.982;2022-09-09T14:29:54;22.80;99.90
16243;DHT22;11719;51.052;6.982;2022-09-09T14:32:20;22.70;99.90
16243;DHT22;11719;51.052;6.982;2022-09-09T14:34:46;22.40;99.90
16243;DHT22;11719;51.052;6.982;2022-09-09T14:37:15;22.20;99.90
16243;DHT22;11719;51.052;6.982;2022-09-09T14:39:42;21.90;99.90
16243;DHT22;11719;51.052;6.982;2022-09-09T14:42:10;22.00;99.90
16243;DHT22;11719;51.052;6.982;2022-09-09T14:44:37;22.10;99.90
16243;DHT22;11719;51.052;6.982;2022-09-09T14:47:06;22.00;99.90
16243;DHT22;11719;51.052;6.982;2022-09-09T14:49:37;21.80;99.90
16243;DHT22;11719;51.052;6.982;2022-09-09T14:52:04;21.60;99.90
16243;DHT22;11719;51.052;6.982;2022-09-09T14:54:31;21.50;99.90
16243;DHT22;11719;51.052;6.982;2022-09-09T14:56:57;21.40;99.90
16243;DHT22;11719;51.052;6.982;2022-09-09T14:59:24;21.50;99.90
16243;DHT22;11719;51.052;6.982;2022-09-09T15:01:50;21.50;99.90
16243;DHT22;11719;51.052;6.982;2022-09-09T15:04:17;21.50;99.90
16243;DHT22;11719;51.052;6.982;2022-09-09T15:06:43;21.50;99.90
16243;DHT22;11719;51.052;6.982;2022-09-09T15:09:13;21.60;99.90
16243;DHT22;11719;51.052;6.982;2022-09-09T15:11:40;21.60;99.90
16243;DHT22;11719;51.052;6.982;2022-09-09T15:14:07;21.50;99.90
16243;DHT22;11719;51.052;6.982;2022-09-09T15:16:35;21.50;99.90
16243;DHT22;11719;51.052;6.982;2022-09-09T15:19:01;21.40;99.90
16243;DHT22;11719;51.052;6.982;2022-09-09T15:21:31;21.30;99.90
16243;DHT22;11719;51.052;6.982;2022-09-09T15:23:59;21.30;99.90
16243;DHT22;11719;51.052;6.982;2022-09-09T15:26:25;21.30;99.90
16243;DHT22;11719;51.052;6.982;2022-09-09T15:28:52;21.30;99.90
16243;DHT22;11719;51.052;6.982;2022-09-09T15:31:24;21.20;99.90
16243;DHT22;11719;51.052;6.982;2022-09-09T15:33:56;21.30;99.90
16243;DHT22;11719;51.052;6.982;2022-09-09T15:36:28;21.40;99.90
16243;DHT22;11719;51.052;6.982;2022-09-09T15:38:57;21.40;99.90
16243;DHT22;11719;51.052;6.982;2022-09-09T15:41:24;21.40;99.90
16243;DHT22;11719;51.052;6.982;2022-09-09T15:43:53;21.40;99.90
16243;DHT22;11719;51.052;6.982;2022-09-09T15:49:11;21.30;99.90
16243;DHT22;11719;51.052;6.982;2022-09-09T15:51:46;21.40;99.90
16243;DHT22;11719;51.052;6.982;2022-09-09T15:54:17;21.40;99.90
16243;DHT22;11719;51.052;6.982;2022-09-09T15:56:46;21.40;99.90
16243;DHT22;11719;51.052;6.982;2022-09-09T15:59:14;21.40;99.90
16243;DHT22;11719;51.052;6.982;2022-09-09T16:01:40;21.50;99.90
16243;DHT22;11719;51.052;6.982;2022-09-09T16:04:07;21.70;99.90
16243;DHT22;11719;51.052;6.982;2022-09-09T16:06:33;21.60;99.90
16243;DHT22;11719;51.052;6.982;2022-09-09T16:09:00;21.60;99.90
16243;DHT22;11719;51.052;6.982;2022-09-09T16:11:33;21.60;99.90
16243;DHT22;11719;51.052;6.982;2022-09-09T16:14:01;21.60;99.90
16243;DHT22;11719;51.052;6.982;2022-09-09T16:16:29;21.60;99.90
16243;DHT22;11719;51.052;6.982;2022-09-09T16:19:10;21.70;99.90
16243;DHT22;11719;51.052;6.982;2022-09-09T16:21:44;21.60;99.90
16243;DHT22;11719;51.052;6.982;2022-09-09T16:24:13;21.60;99.90
16243;DHT22;11719;51.052;6.982;2022-09-09T16:26:42;21.60;99.90
16243;DHT22;11719;51.052;6.982;2022-09-09T16:29:12;21.60;99.90
16243;DHT22;11719;51.052;6.982;2022-09-09T16:31:40;21.60;99.90
16243;DHT22;11719;51.052;6.982;2022-09-09T16:34:06;21.60;99.90
16243;DHT22;11719;51.052;6.982;2022-09-09T16:36:34;21.60;99.90
16243;DHT22;11719;51.052;6.982;2022-09-09T16:39:08;21.60;99.90
16243;DHT22;11719;51.052;6.982;2022-09-09T16:41:35;21.50;99.90
16243;DHT22;11719;51.052;6.982;2022-09-09T16:44:04;21.50;99.90
16243;DHT22;11719;51.052;6.982;2022-09-09T16:46:34;21.50;99.90
16243;DHT22;11719;51.052;6.982;2022-09-09T16:49:06;21.60;99.90
16243;DHT22;11719;51.052;6.982;2022-09-09T16:51:41;21.60;99.90
16243;DHT22;11719;51.052;6.982;2022-09-09T16:54:09;21.50;99.90
16243;DHT22;11719;51.052;6.982;2022-09-09T16:56:38;21.50;99.90
16243;DHT22;11719;51.052;6.982;2022-09-09T16:59:08;21.50;99.90
16243;DHT22;11719;51.052;6.982;2022-09-09T17:01:37;21.50;99.90
16243;DHT22;11719;51.052;6.982;2022-09-09T17:04:11;21.50;99.90
16243;DHT22;11719;51.052;6.982;2022-09-09T17:06:46;21.60;99.90
16243;DHT22;11719;51.052;6.982;2022-09-09T17:09:15;21.50;99.90
16243;DHT22;11719;51.052;6.982;2022-09-09T17:11:41;21.50;99.90
16243;DHT22;11719;51.052;6.982;2022-09-09T17:14:09;21.50;99.90
16243;DHT22;11719;51.052;6.982;2022-09-09T17:16:38;21.50;99.90
16243;DHT22;11719;51.052;6.982;2022-09-09T17:19:05;21.50;99.90
16243;DHT22;11719;51.052;6.982;2022-09-09T17:21:33;21.50;99.90
16243;DHT22;11719;51.052;6.982;2022-09-09T17:24:00;21.60;99.90
16243;DHT22;11719;51.052;6.982;2022-09-09T17:26:29;21.70;99.90
16243;DHT22;11719;51.052;6.982;2022-09-09T17:28:56;21.80;99.90
16243;DHT22;11719;51.052;6.982;2022-09-09T17:31:24;21.90;99.90
16243;DHT22;11719;51.052;6.982;2022-09-09T17:33:51;21.90;99.90
16243;DHT22;11719;51.052;6.982;2022-09-09T17:36:22;21.90;99.90
16243;DHT22;11719;51.052;6.982;2022-09-09T17:38:51;21.80;99.90
16243;DHT22;11719;51.052;6.982;2022-09-09T17:41:23;21.80;99.90
16243;DHT22;11719;51.052;6.982;2022-09-09T17:43:50;21.80;99.90
16243;DHT22;11719;51.052;6.982;2022-09-09T17:46:18;21.80;99.90
16243;DHT22;11719;51.052;6.982;2022-09-09T17:48:45;21.80;99.90
16243;DHT22;11719;51.052;6.982;2022-09-09T17:51:22;21.70;99.90
16243;DHT22;11719;51.052;6.982;2022-09-09T17:53:53;21.70;99.90
16243;DHT22;11719;51.052;6.982;2022-09-09T17:56:21;21.70;99.90
16243;DHT22;11719;51.052;6.982;2022-09-09T17:58:49;21.70;99.90
16243;DHT22;11719;51.052;6.982;2022-09-09T18:01:21;21.60;99.90
16243;DHT22;11719;51.052;6.982;2022-09-09T18:03:53;21.50;99.90
16243;DHT22;11719;51.052;6.982;2022-09-09T18:06:25;21.50;99.90
16243;DHT22;11719;51.052;6.982;2022-09-09T18:08:55;21.40;99.90
16243;DHT22;11719;51.052;6.982;2022-09-09T18:11:25;21.50;99.90
16243;DHT22;11719;51.052;6.982;2022-09-09T18:13:54;21.50;99.90
16243;DHT22;11719;51.052;6.982;2022-09-09T18:16:23;21.50;99.90
16243;DHT22;11719;51.052;6.982;2022-09-09T18:18:51;21.40;99.90
16243;DHT22;11719;51.052;6.982;2022-09-09T18:21:18;21.40;99.90
16243;DHT22;11719;51.052;6.982;2022-09-09T18:23:45;21.40;99.90
16243;DHT22;11719;51.052;6.982;2022-09-09T18:26:16;21.50;99.90
16243;DHT22;11719;51.052;6.982;2022-09-09T18:28:48;21.50;99.90
16243;DHT22;11719;51.052;6.982;2022-09-09T18:31:27;21.50;99.90